sensor_id;sensor_type;location;lat;lon;timestamp;P1;durP1;ratioP1;P2;durP2;ratioP2
4466;SDS011;2246;42.664;23.278;2022-08-21T00:01:43;18.63;;;9.43;;
4466;SDS011;2246;42.664;23.278;2022-08-21T00:04:10;16.83;;;9.35;;
4466;SDS011;2246;42.664;23.278;2022-08-21T00:06:37;22.25;;;10.85;;
4466;SDS011;2246;42.664;23.278;2022-08-21T00:09:04;16.13;;;9.18;;
4466;SDS011;2246;42.664;23.278;2022-08-21T00:11:30;19.70;;;9.70;;
4466;SDS011;2246;42.664;23.278;2022-08-21T00:13:56;18.85;;;10.23;;
4466;SDS011;2246;42.664;23.278;2022-08-21T00:16:22;16.92;;;9.57;;
4466;SDS011;2246;42.664;23.278;2022-08-21T00:18:49;21.95;;;9.07;;
4466;SDS011;2246;42.664;23.278;2022-08-21T00:21:15;20.83;;;7.90;;
4466;SDS011;2246;42.664;23.278;2022-08-21T00:23:42;20.10;;;9.98;;
4466;SDS011;2246;42.664;23.278;2022-08-21T00:26:08;16.55;;;9.60;;
4466;SDS011;2246;42.664;23.278;2022-08-21T00:28:34;18.15;;;10.10;;
4466;SDS011;2246;42.664;23.278;2022-08-21T00:31:00;17.35;;;9.32;;
4466;SDS011;2246;42.664;23.278;2022-08-21T00:33:29;14.30;;;9.55;;
4466;SDS011;2246;42.664;23.278;2022-08-21T00:35:55;14.95;;;8.77;;
4466;SDS011;2246;42.664;23.278;2022-08-21T00:38:21;16.45;;;9.90;;
4466;SDS011;2246;42.664;23.278;2022-08-21T00:40:52;17.73;;;9.88;;
4466;SDS011;2246;42.664;23.278;2022-08-21T00:43:20;17.60;;;9.00;;
4466;SDS011;2246;42.664;23.278;2022-08-21T00:45:47;19.38;;;8.48;;
4466;SDS011;2246;42.664;23.278;2022-08-21T00:48:13;16.92;;;8.98;;
4466;SDS011;2246;42.664;23.278;2022-08-21T00:50:42;17.13;;;8.30;;
4466;SDS011;2246;42.664;23.278;2022-08-21T00:53:08;23.35;;;8.25;;
4466;SDS011;2246;42.664;23.278;2022-08-21T00:55:35;17.88;;;9.32;;
4466;SDS011;2246;42.664;23.278;2022-08-21T00:58:02;14.45;;;8.20;;
4466;SDS011;2246;42.664;23.278;2022-08-21T01:00:31;14.83;;;8.70;;
4466;SDS011;2246;42.664;23.278;2022-08-21T01:02:58;27.80;;;13.35;;
4466;SDS011;2246;42.664;23.278;2022-08-21T01:05:25;31.05;;;15.02;;
4466;SDS011;2246;42.664;23.278;2022-08-21T01:07:51;13.13;;;7.57;;
4466;SDS011;2246;42.664;23.278;2022-08-21T01:10:18;17.77;;;10.63;;
4466;SDS011;2246;42.664;23.278;2022-08-21T01:12:44;21.02;;;9.57;;
4466;SDS011;2246;42.664;23.278;2022-08-21T01:15:11;18.38;;;8.13;;
4466;SDS011;2246;42.664;23.278;2022-08-21T01:17:39;12.88;;;7.15;;
4466;SDS011;2246;42.664;23.278;2022-08-21T01:20:07;16.27;;;7.60;;
4466;SDS011;2246;42.664;23.278;2022-08-21T01:22:34;14.93;;;8.45;;
4466;SDS011;2246;42.664;23.278;2022-08-21T01:25:00;15.50;;;7.13;;
4466;SDS011;2246;42.664;23.278;2022-08-21T01:27:26;14.65;;;7.25;;
4466;SDS011;2246;42.664;23.278;2022-08-21T01:29:57;17.20;;;7.25;;
4466;SDS011;2246;42.664;23.278;2022-08-21T01:32:24;16.45;;;6.95;;
4466;SDS011;2246;42.664;23.278;2022-08-21T01:34:50;16.92;;;7.10;;
4466;SDS011;2246;42.664;23.278;2022-08-21T01:37:17;17.13;;;6.40;;
4466;SDS011;2246;42.664;23.278;2022-08-21T01:39:44;14.30;;;7.03;;
4466;SDS011;2246;42.664;23.278;2022-08-21T01:42:10;15.80;;;6.03;;
4466;SDS011;2246;42.664;23.278;2022-08-21T01:44:36;10.05;;;5.40;;
4466;SDS011;2246;42.664;23.278;2022-08-21T01:47:04;10.65;;;5.97;;
4466;SDS011;2246;42.664;23.278;2022-08-21T01:49:30;9.30;;;5.35;;
4466;SDS011;2246;42.664;23.278;2022-08-21T01:51:56;13.55;;;5.28;;
4466;SDS011;2246;42.664;23.278;2022-08-21T01:54:22;11.75;;;5.45;;
4466;SDS011;2246;42.664;23.278;2022-08-21T01:56:49;11.90;;;5.70;;
4466;SDS011;2246;42.664;23.278;2022-08-21T02:01:42;12.10;;;4.78;;
4466;SDS011;2246;42.664;23.278;2022-08-21T02:04:08;11.68;;;5.18;;
4466;SDS011;2246;42.664;23.278;2022-08-21T02:06:35;12.27;;;4.97;;
4466;SDS011;2246;42.664;23.278;2022-08-21T02:09:02;10.88;;;4.68;;
4466;SDS011;2246;42.664;23.278;2022-08-21T02:13:54;14.02;;;5.40;;
4466;SDS011;2246;42.664;23.278;2022-08-21T02:16:20;12.95;;;4.75;;
4466;SDS011;2246;42.664;23.278;2022-08-21T02:18:47;11.93;;;5.60;;
4466;SDS011;2246;42.664;23.278;2022-08-21T02:23:55;17.75;;;8.93;;
4466;SDS011;2246;42.664;23.278;2022-08-21T02:26:21;13.32;;;8.13;;
4466;SDS011;2246;42.664;23.278;2022-08-21T02:28:47;19.77;;;8.98;;
4466;SDS011;2246;42.664;23.278;2022-08-21T02:31:13;14.85;;;9.10;;
4466;SDS011;2246;42.664;23.278;2022-08-21T02:33:40;15.98;;;7.93;;
4466;SDS011;2246;42.664;23.278;2022-08-21T02:36:06;15.27;;;8.07;;
4466;SDS011;2246;42.664;23.278;2022-08-21T02:38:33;17.58;;;8.90;;
4466;SDS011;2246;42.664;23.278;2022-08-21T02:41:03;18.05;;;8.52;;
4466;SDS011;2246;42.664;23.278;2022-08-21T02:43:29;11.88;;;8.00;;
4466;SDS011;2246;42.664;23.278;2022-08-21T02:45:56;17.75;;;8.27;;
4466;SDS011;2246;42.664;23.278;2022-08-21T02:48:23;17.52;;;8.77;;
4466;SDS011;2246;42.664;23.278;2022-08-21T02:50:54;16.25;;;9.18;;
4466;SDS011;2246;42.664;23.278;2022-08-21T02:53:21;17.55;;;9.43;;
4466;SDS011;2246;42.664;23.278;2022-08-21T02:55:48;19.20;;;10.40;;
4466;SDS011;2246;42.664;23.278;2022-08-21T02:58:15;18.92;;;10.02;;
4466;SDS011;2246;42.664;23.278;2022-08-21T03:00:42;18.70;;;9.02;;
4466;SDS011;2246;42.664;23.278;2022-08-21T03:03:09;22.65;;;10.20;;
4466;SDS011;2246;42.664;23.278;2022-08-21T03:05:35;17.92;;;10.07;;
4466;SDS011;2246;42.664;23.278;2022-08-21T03:08:06;14.18;;;9.20;;
4466;SDS011;2246;42.664;23.278;2022-08-21T03:10:39;13.75;;;9.90;;
4466;SDS011;2246;42.664;23.278;2022-08-21T03:13:05;24.30;;;13.32;;
4466;SDS011;2246;42.664;23.278;2022-08-21T03:15:32;26.52;;;16.48;;
4466;SDS011;2246;42.664;23.278;2022-08-21T03:17:58;19.42;;;12.23;;
4466;SDS011;2246;42.664;23.278;2022-08-21T03:20:25;18.67;;;9.25;;
4466;SDS011;2246;42.664;23.278;2022-08-21T03:22:52;14.05;;;8.20;;
4466;SDS011;2246;42.664;23.278;2022-08-21T03:25:19;20.00;;;6.93;;
4466;SDS011;2246;42.664;23.278;2022-08-21T03:27:46;16.55;;;8.15;;
4466;SDS011;2246;42.664;23.278;2022-08-21T03:30:14;14.52;;;7.82;;
4466;SDS011;2246;42.664;23.278;2022-08-21T03:32:40;14.05;;;6.72;;
4466;SDS011;2246;42.664;23.278;2022-08-21T03:35:07;17.13;;;6.75;;
4466;SDS011;2246;42.664;23.278;2022-08-21T03:37:33;17.42;;;9.75;;
4466;SDS011;2246;42.664;23.278;2022-08-21T03:39:59;21.55;;;9.25;;
4466;SDS011;2246;42.664;23.278;2022-08-21T03:42:26;19.35;;;10.52;;
4466;SDS011;2246;42.664;23.278;2022-08-21T03:44:52;16.27;;;8.32;;
4466;SDS011;2246;42.664;23.278;2022-08-21T03:47:18;19.75;;;8.43;;
4466;SDS011;2246;42.664;23.278;2022-08-21T03:49:44;13.43;;;7.45;;
4466;SDS011;2246;42.664;23.278;2022-08-21T03:52:10;19.15;;;9.88;;
4466;SDS011;2246;42.664;23.278;2022-08-21T03:54:36;18.02;;;10.50;;
4466;SDS011;2246;42.664;23.278;2022-08-21T03:57:04;23.30;;;8.68;;
4466;SDS011;2246;42.664;23.278;2022-08-21T03:59:30;18.40;;;8.52;;
4466;SDS011;2246;42.664;23.278;2022-08-21T04:01:57;24.52;;;10.05;;
4466;SDS011;2246;42.664;23.278;2022-08-21T04:04:24;16.13;;;6.80;;
4466;SDS011;2246;42.664;23.278;2022-08-21T04:06:50;13.15;;;7.65;;
4466;SDS011;2246;42.664;23.278;2022-08-21T04:09:17;19.23;;;9.43;;
4466;SDS011;2246;42.664;23.278;2022-08-21T04:11:43;35.13;;;18.75;;
4466;SDS011;2246;42.664;23.278;2022-08-21T04:14:10;39.10;;;20.00;;
4466;SDS011;2246;42.664;23.278;2022-08-21T04:16:37;35.05;;;17.95;;
4466;SDS011;2246;42.664;23.278;2022-08-21T04:19:03;33.95;;;18.08;;
4466;SDS011;2246;42.664;23.278;2022-08-21T04:21:29;31.38;;;17.70;;
4466;SDS011;2246;42.664;23.278;2022-08-21T04:23:55;36.63;;;20.35;;
4466;SDS011;2246;42.664;23.278;2022-08-21T04:26:22;33.58;;;19.02;;
4466;SDS011;2246;42.664;23.278;2022-08-21T04:28:48;34.03;;;18.02;;
4466;SDS011;2246;42.664;23.278;2022-08-21T04:31:14;27.08;;;10.35;;
4466;SDS011;2246;42.664;23.278;2022-08-21T04:33:40;21.17;;;10.25;;
4466;SDS011;2246;42.664;23.278;2022-08-21T04:36:06;19.60;;;8.82;;
4466;SDS011;2246;42.664;23.278;2022-08-21T04:38:33;12.40;;;5.95;;
4466;SDS011;2246;42.664;23.278;2022-08-21T04:40:59;24.83;;;10.77;;
4466;SDS011;2246;42.664;23.278;2022-08-21T04:43:25;15.60;;;7.60;;
4466;SDS011;2246;42.664;23.278;2022-08-21T04:45:51;15.30;;;6.10;;
4466;SDS011;2246;42.664;23.278;2022-08-21T04:48:19;14.00;;;6.95;;
4466;SDS011;2246;42.664;23.278;2022-08-21T04:53:20;16.23;;;7.18;;
4466;SDS011;2246;42.664;23.278;2022-08-21T04:55:47;15.32;;;7.20;;
4466;SDS011;2246;42.664;23.278;2022-08-21T04:58:15;16.37;;;6.90;;
4466;SDS011;2246;42.664;23.278;2022-08-21T05:03:08;18.85;;;7.40;;
4466;SDS011;2246;42.664;23.278;2022-08-21T05:05:35;12.77;;;7.45;;
4466;SDS011;2246;42.664;23.278;2022-08-21T05:08:01;16.02;;;6.88;;
4466;SDS011;2246;42.664;23.278;2022-08-21T05:10:28;13.82;;;6.90;;
4466;SDS011;2246;42.664;23.278;2022-08-21T05:12:56;16.40;;;7.32;;
4466;SDS011;2246;42.664;23.278;2022-08-21T05:15:22;13.77;;;7.30;;
4466;SDS011;2246;42.664;23.278;2022-08-21T05:17:48;16.13;;;6.85;;
4466;SDS011;2246;42.664;23.278;2022-08-21T05:20:15;17.52;;;7.55;;
4466;SDS011;2246;42.664;23.278;2022-08-21T05:22:41;19.35;;;9.95;;
4466;SDS011;2246;42.664;23.278;2022-08-21T05:25:08;25.90;;;11.20;;
4466;SDS011;2246;42.664;23.278;2022-08-21T05:27:35;13.85;;;9.43;;
4466;SDS011;2246;42.664;23.278;2022-08-21T05:30:02;13.95;;;7.47;;
4466;SDS011;2246;42.664;23.278;2022-08-21T05:32:28;13.77;;;7.32;;
4466;SDS011;2246;42.664;23.278;2022-08-21T05:34:55;21.85;;;7.00;;
4466;SDS011;2246;42.664;23.278;2022-08-21T05:37:21;15.63;;;7.28;;
4466;SDS011;2246;42.664;23.278;2022-08-21T05:39:47;14.07;;;6.60;;
4466;SDS011;2246;42.664;23.278;2022-08-21T05:42:13;16.70;;;7.65;;
4466;SDS011;2246;42.664;23.278;2022-08-21T05:44:39;18.65;;;6.65;;
4466;SDS011;2246;42.664;23.278;2022-08-21T05:47:06;12.23;;;6.15;;
4466;SDS011;2246;42.664;23.278;2022-08-21T05:49:32;16.88;;;8.30;;
4466;SDS011;2246;42.664;23.278;2022-08-21T05:51:58;23.25;;;10.52;;
4466;SDS011;2246;42.664;23.278;2022-08-21T05:54:25;15.30;;;7.50;;
4466;SDS011;2246;42.664;23.278;2022-08-21T05:56:51;24.88;;;8.00;;
4466;SDS011;2246;42.664;23.278;2022-08-21T05:59:17;19.30;;;7.15;;
4466;SDS011;2246;42.664;23.278;2022-08-21T06:01:44;18.27;;;8.07;;
4466;SDS011;2246;42.664;23.278;2022-08-21T06:04:10;13.60;;;6.63;;
4466;SDS011;2246;42.664;23.278;2022-08-21T06:06:36;11.15;;;6.15;;
4466;SDS011;2246;42.664;23.278;2022-08-21T06:09:03;14.50;;;6.47;;
4466;SDS011;2246;42.664;23.278;2022-08-21T06:11:29;22.27;;;7.40;;
4466;SDS011;2246;42.664;23.278;2022-08-21T06:13:55;22.52;;;8.18;;
4466;SDS011;2246;42.664;23.278;2022-08-21T06:16:28;14.88;;;7.03;;
4466;SDS011;2246;42.664;23.278;2022-08-21T06:18:54;14.05;;;6.35;;
4466;SDS011;2246;42.664;23.278;2022-08-21T06:21:20;13.55;;;7.40;;
4466;SDS011;2246;42.664;23.278;2022-08-21T06:23:46;14.32;;;7.57;;
4466;SDS011;2246;42.664;23.278;2022-08-21T06:26:13;15.07;;;6.78;;
4466;SDS011;2246;42.664;23.278;2022-08-21T06:28:39;13.63;;;6.90;;
4466;SDS011;2246;42.664;23.278;2022-08-21T06:31:16;21.80;;;7.17;;
4466;SDS011;2246;42.664;23.278;2022-08-21T06:33:42;13.85;;;7.97;;
4466;SDS011;2246;42.664;23.278;2022-08-21T06:36:09;16.27;;;7.03;;
4466;SDS011;2246;42.664;23.278;2022-08-21T06:38:35;17.17;;;8.55;;
4466;SDS011;2246;42.664;23.278;2022-08-21T06:41:01;12.82;;;7.03;;
4466;SDS011;2246;42.664;23.278;2022-08-21T06:43:28;12.32;;;7.22;;
4466;SDS011;2246;42.664;23.278;2022-08-21T06:45:54;15.57;;;9.25;;
4466;SDS011;2246;42.664;23.278;2022-08-21T06:48:20;15.90;;;7.80;;
4466;SDS011;2246;42.664;23.278;2022-08-21T06:50:47;19.15;;;8.18;;
4466;SDS011;2246;42.664;23.278;2022-08-21T06:53:14;13.93;;;7.37;;
4466;SDS011;2246;42.664;23.278;2022-08-21T06:55:41;13.13;;;7.38;;
4466;SDS011;2246;42.664;23.278;2022-08-21T06:58:07;18.75;;;7.63;;
4466;SDS011;2246;42.664;23.278;2022-08-21T07:00:34;13.02;;;8.10;;
4466;SDS011;2246;42.664;23.278;2022-08-21T07:03:00;18.52;;;8.93;;
4466;SDS011;2246;42.664;23.278;2022-08-21T07:05:26;13.55;;;7.60;;
4466;SDS011;2246;42.664;23.278;2022-08-21T07:07:53;18.40;;;8.05;;
4466;SDS011;2246;42.664;23.278;2022-08-21T07:10:19;18.05;;;9.30;;
4466;SDS011;2246;42.664;23.278;2022-08-21T07:12:45;12.73;;;8.20;;
4466;SDS011;2246;42.664;23.278;2022-08-21T07:15:11;20.50;;;8.60;;
4466;SDS011;2246;42.664;23.278;2022-08-21T07:17:37;22.13;;;8.38;;
4466;SDS011;2246;42.664;23.278;2022-08-21T07:20:04;18.52;;;9.32;;
4466;SDS011;2246;42.664;23.278;2022-08-21T07:22:31;24.65;;;8.48;;
4466;SDS011;2246;42.664;23.278;2022-08-21T07:24:57;13.30;;;7.97;;
4466;SDS011;2246;42.664;23.278;2022-08-21T07:27:23;13.77;;;7.88;;
4466;SDS011;2246;42.664;23.278;2022-08-21T07:29:51;16.88;;;7.72;;
4466;SDS011;2246;42.664;23.278;2022-08-21T07:32:17;17.98;;;8.30;;
4466;SDS011;2246;42.664;23.278;2022-08-21T07:34:43;15.82;;;8.23;;
4466;SDS011;2246;42.664;23.278;2022-08-21T07:37:09;15.55;;;8.00;;
4466;SDS011;2246;42.664;23.278;2022-08-21T07:39:36;14.43;;;7.22;;
4466;SDS011;2246;42.664;23.278;2022-08-21T07:42:02;12.63;;;6.95;;
4466;SDS011;2246;42.664;23.278;2022-08-21T07:44:28;20.50;;;7.35;;
4466;SDS011;2246;42.664;23.278;2022-08-21T07:46:54;21.80;;;8.05;;
4466;SDS011;2246;42.664;23.278;2022-08-21T07:49:20;17.38;;;7.57;;
4466;SDS011;2246;42.664;23.278;2022-08-21T07:51:46;16.75;;;7.70;;
4466;SDS011;2246;42.664;23.278;2022-08-21T07:54:12;17.40;;;8.38;;
4466;SDS011;2246;42.664;23.278;2022-08-21T07:56:38;23.35;;;7.82;;
4466;SDS011;2246;42.664;23.278;2022-08-21T07:59:04;16.17;;;7.82;;
4466;SDS011;2246;42.664;23.278;2022-08-21T08:01:31;16.83;;;7.95;;
4466;SDS011;2246;42.664;23.278;2022-08-21T08:03:57;14.70;;;7.25;;
4466;SDS011;2246;42.664;23.278;2022-08-21T08:06:23;15.13;;;7.90;;
4466;SDS011;2246;42.664;23.278;2022-08-21T08:11:17;20.05;;;7.60;;
4466;SDS011;2246;42.664;23.278;2022-08-21T08:13:44;16.92;;;7.75;;
4466;SDS011;2246;42.664;23.278;2022-08-21T08:16:11;16.13;;;7.55;;
4466;SDS011;2246;42.664;23.278;2022-08-21T08:18:37;14.77;;;6.40;;
4466;SDS011;2246;42.664;23.278;2022-08-21T08:21:03;11.57;;;6.80;;
4466;SDS011;2246;42.664;23.278;2022-08-21T08:23:30;13.48;;;6.30;;
4466;SDS011;2246;42.664;23.278;2022-08-21T08:25:57;16.37;;;6.30;;
4466;SDS011;2246;42.664;23.278;2022-08-21T08:28:23;15.50;;;6.47;;
4466;SDS011;2246;42.664;23.278;2022-08-21T08:30:49;17.98;;;8.30;;
4466;SDS011;2246;42.664;23.278;2022-08-21T08:33:16;15.88;;;7.15;;
4466;SDS011;2246;42.664;23.278;2022-08-21T08:35:44;25.88;;;6.75;;
4466;SDS011;2246;42.664;23.278;2022-08-21T08:38:10;16.95;;;6.90;;
4466;SDS011;2246;42.664;23.278;2022-08-21T08:40:42;18.67;;;6.68;;
4466;SDS011;2246;42.664;23.278;2022-08-21T08:43:10;12.75;;;6.60;;
4466;SDS011;2246;42.664;23.278;2022-08-21T08:45:37;15.37;;;7.17;;
4466;SDS011;2246;42.664;23.278;2022-08-21T08:48:06;13.23;;;6.70;;
4466;SDS011;2246;42.664;23.278;2022-08-21T08:53:22;19.48;;;7.50;;
4466;SDS011;2246;42.664;23.278;2022-08-21T08:55:49;15.40;;;6.38;;
4466;SDS011;2246;42.664;23.278;2022-08-21T09:00:43;14.90;;;7.47;;
4466;SDS011;2246;42.664;23.278;2022-08-21T09:03:10;14.43;;;6.32;;
4466;SDS011;2246;42.664;23.278;2022-08-21T09:05:46;10.88;;;5.50;;
4466;SDS011;2246;42.664;23.278;2022-08-21T09:13:22;12.40;;;5.93;;
4466;SDS011;2246;42.664;23.278;2022-08-21T09:15:53;14.15;;;5.60;;
4466;SDS011;2246;42.664;23.278;2022-08-21T09:18:32;13.13;;;6.68;;
4466;SDS011;2246;42.664;23.278;2022-08-21T09:21:02;13.07;;;5.70;;
4466;SDS011;2246;42.664;23.278;2022-08-21T09:23:46;10.90;;;5.00;;
4466;SDS011;2246;42.664;23.278;2022-08-21T09:26:19;14.95;;;5.80;;
4466;SDS011;2246;42.664;23.278;2022-08-21T09:28:46;12.88;;;5.55;;
4466;SDS011;2246;42.664;23.278;2022-08-21T09:33:42;13.80;;;4.55;;
4466;SDS011;2246;42.664;23.278;2022-08-21T09:36:08;11.07;;;4.72;;
4466;SDS011;2246;42.664;23.278;2022-08-21T09:38:35;12.45;;;5.38;;
4466;SDS011;2246;42.664;23.278;2022-08-21T09:43:28;11.73;;;6.47;;
4466;SDS011;2246;42.664;23.278;2022-08-21T09:46:06;16.57;;;6.27;;
4466;SDS011;2246;42.664;23.278;2022-08-21T09:48:45;19.02;;;6.30;;
4466;SDS011;2246;42.664;23.278;2022-08-21T09:51:14;15.10;;;5.70;;
4466;SDS011;2246;42.664;23.278;2022-08-21T09:53:48;10.60;;;5.57;;
4466;SDS011;2246;42.664;23.278;2022-08-21T09:56:19;16.90;;;7.82;;
4466;SDS011;2246;42.664;23.278;2022-08-21T09:59:16;12.38;;;5.40;;
4466;SDS011;2246;42.664;23.278;2022-08-21T10:01:43;14.55;;;4.82;;
4466;SDS011;2246;42.664;23.278;2022-08-21T10:04:10;13.80;;;5.18;;
4466;SDS011;2246;42.664;23.278;2022-08-21T10:06:36;13.52;;;5.28;;
4466;SDS011;2246;42.664;23.278;2022-08-21T10:09:09;19.63;;;5.28;;
4466;SDS011;2246;42.664;23.278;2022-08-21T10:11:35;14.18;;;4.97;;
4466;SDS011;2246;42.664;23.278;2022-08-21T10:14:19;15.82;;;4.43;;
4466;SDS011;2246;42.664;23.278;2022-08-21T10:19:23;13.55;;;6.05;;
4466;SDS011;2246;42.664;23.278;2022-08-21T10:24:38;15.20;;;4.88;;
4466;SDS011;2246;42.664;23.278;2022-08-21T10:34:59;12.32;;;5.03;;
4466;SDS011;2246;42.664;23.278;2022-08-21T10:40:09;11.05;;;4.72;;
4466;SDS011;2246;42.664;23.278;2022-08-21T10:42:43;15.20;;;5.28;;
4466;SDS011;2246;42.664;23.278;2022-08-21T10:48:03;12.70;;;4.75;;
4466;SDS011;2246;42.664;23.278;2022-08-21T10:53:15;15.30;;;5.22;;
4466;SDS011;2246;42.664;23.278;2022-08-21T10:55:44;12.63;;;4.95;;
4466;SDS011;2246;42.664;23.278;2022-08-21T10:58:19;14.32;;;5.25;;
4466;SDS011;2246;42.664;23.278;2022-08-21T11:00:51;14.07;;;4.72;;
4466;SDS011;2246;42.664;23.278;2022-08-21T11:05:50;17.20;;;4.78;;
4466;SDS011;2246;42.664;23.278;2022-08-21T11:08:28;12.55;;;4.90;;
4466;SDS011;2246;42.664;23.278;2022-08-21T11:11:06;13.73;;;5.28;;
4466;SDS011;2246;42.664;23.278;2022-08-21T11:13:51;10.85;;;5.20;;
4466;SDS011;2246;42.664;23.278;2022-08-21T11:18:50;15.40;;;6.03;;
4466;SDS011;2246;42.664;23.278;2022-08-21T11:29:26;16.38;;;5.05;;
4466;SDS011;2246;42.664;23.278;2022-08-21T11:37:17;11.30;;;4.82;;
4466;SDS011;2246;42.664;23.278;2022-08-21T11:42:24;12.35;;;5.20;;
4466;SDS011;2246;42.664;23.278;2022-08-21T11:45:12;9.73;;;4.90;;
4466;SDS011;2246;42.664;23.278;2022-08-21T11:48:00;7.82;;;4.63;;
4466;SDS011;2246;42.664;23.278;2022-08-21T11:50:29;14.95;;;6.18;;
4466;SDS011;2246;42.664;23.278;2022-08-21T11:53:01;10.88;;;5.07;;
4466;SDS011;2246;42.664;23.278;2022-08-21T11:55:35;11.73;;;4.82;;
4466;SDS011;2246;42.664;23.278;2022-08-21T11:58:06;9.15;;;4.18;;
4466;SDS011;2246;42.664;23.278;2022-08-21T12:03:07;12.32;;;5.78;;
4466;SDS011;2246;42.664;23.278;2022-08-21T12:05:35;18.02;;;7.28;;
4466;SDS011;2246;42.664;23.278;2022-08-21T12:08:44;11.38;;;5.57;;
4466;SDS011;2246;42.664;23.278;2022-08-21T12:11:02;11.25;;;5.47;;
4466;SDS011;2246;42.664;23.278;2022-08-21T12:13:29;19.10;;;7.57;;
4466;SDS011;2246;42.664;23.278;2022-08-21T12:16:06;9.38;;;4.97;;
4466;SDS011;2246;42.664;23.278;2022-08-21T12:18:32;11.65;;;5.30;;
4466;SDS011;2246;42.664;23.278;2022-08-21T12:21:01;8.43;;;4.15;;
4466;SDS011;2246;42.664;23.278;2022-08-21T12:23:30;12.80;;;4.75;;
4466;SDS011;2246;42.664;23.278;2022-08-21T12:26:09;11.65;;;5.10;;
4466;SDS011;2246;42.664;23.278;2022-08-21T12:28:36;13.32;;;5.57;;
4466;SDS011;2246;42.664;23.278;2022-08-21T12:31:03;12.00;;;4.90;;
4466;SDS011;2246;42.664;23.278;2022-08-21T12:33:33;9.70;;;4.68;;
4466;SDS011;2246;42.664;23.278;2022-08-21T12:41:21;11.07;;;4.40;;
4466;SDS011;2246;42.664;23.278;2022-08-21T12:43:56;8.50;;;4.10;;
4466;SDS011;2246;42.664;23.278;2022-08-21T12:47:05;6.78;;;3.90;;
4466;SDS011;2246;42.664;23.278;2022-08-21T12:54:23;8.93;;;4.68;;
4466;SDS011;2246;42.664;23.278;2022-08-21T12:56:56;13.82;;;7.45;;
4466;SDS011;2246;42.664;23.278;2022-08-21T12:59:22;9.63;;;4.20;;
4466;SDS011;2246;42.664;23.278;2022-08-21T13:01:49;12.20;;;4.82;;
4466;SDS011;2246;42.664;23.278;2022-08-21T13:04:17;6.75;;;3.75;;
4466;SDS011;2246;42.664;23.278;2022-08-21T13:06:46;9.60;;;4.70;;
4466;SDS011;2246;42.664;23.278;2022-08-21T13:09:14;10.73;;;4.68;;
4466;SDS011;2246;42.664;23.278;2022-08-21T13:11:41;9.60;;;4.80;;
4466;SDS011;2246;42.664;23.278;2022-08-21T13:14:14;9.80;;;4.60;;
4466;SDS011;2246;42.664;23.278;2022-08-21T13:16:41;14.40;;;5.82;;
4466;SDS011;2246;42.664;23.278;2022-08-21T13:19:11;10.90;;;4.95;;
4466;SDS011;2246;42.664;23.278;2022-08-21T13:21:41;14.70;;;5.75;;
4466;SDS011;2246;42.664;23.278;2022-08-21T13:26:39;11.15;;;4.80;;
4466;SDS011;2246;42.664;23.278;2022-08-21T13:29:07;11.18;;;4.53;;
4466;SDS011;2246;42.664;23.278;2022-08-21T13:31:34;9.07;;;5.00;;
4466;SDS011;2246;42.664;23.278;2022-08-21T13:34:00;13.60;;;5.35;;
4466;SDS011;2246;42.664;23.278;2022-08-21T13:36:29;15.13;;;5.25;;
4466;SDS011;2246;42.664;23.278;2022-08-21T13:38:55;14.25;;;5.70;;
4466;SDS011;2246;42.664;23.278;2022-08-21T13:41:27;15.10;;;5.45;;
4466;SDS011;2246;42.664;23.278;2022-08-21T13:43:59;11.95;;;6.45;;
4466;SDS011;2246;42.664;23.278;2022-08-21T13:46:30;13.65;;;4.97;;
4466;SDS011;2246;42.664;23.278;2022-08-21T13:48:58;11.00;;;4.72;;
4466;SDS011;2246;42.664;23.278;2022-08-21T13:51:24;12.70;;;4.88;;
4466;SDS011;2246;42.664;23.278;2022-08-21T13:53:51;10.32;;;4.68;;
4466;SDS011;2246;42.664;23.278;2022-08-21T13:56:21;11.73;;;4.30;;
4466;SDS011;2246;42.664;23.278;2022-08-21T13:58:48;10.27;;;4.30;;
4466;SDS011;2246;42.664;23.278;2022-08-21T14:01:33;11.15;;;4.57;;
4466;SDS011;2246;42.664;23.278;2022-08-21T14:04:05;10.98;;;4.30;;
4466;SDS011;2246;42.664;23.278;2022-08-21T14:06:34;12.68;;;4.78;;
4466;SDS011;2246;42.664;23.278;2022-08-21T14:09:03;11.55;;;5.10;;
4466;SDS011;2246;42.664;23.278;2022-08-21T14:11:33;11.77;;;5.10;;
4466;SDS011;2246;42.664;23.278;2022-08-21T14:14:04;12.52;;;5.10;;
4466;SDS011;2246;42.664;23.278;2022-08-21T14:16:41;12.45;;;5.43;;
4466;SDS011;2246;42.664;23.278;2022-08-21T14:19:09;12.93;;;6.40;;
4466;SDS011;2246;42.664;23.278;2022-08-21T14:21:37;12.63;;;5.97;;
4466;SDS011;2246;42.664;23.278;2022-08-21T14:24:05;21.65;;;5.78;;
4466;SDS011;2246;42.664;23.278;2022-08-21T14:26:32;13.05;;;5.15;;
4466;SDS011;2246;42.664;23.278;2022-08-21T14:28:59;17.23;;;5.75;;
4466;SDS011;2246;42.664;23.278;2022-08-21T14:31:28;11.85;;;5.55;;
4466;SDS011;2246;42.664;23.278;2022-08-21T14:33:55;16.85;;;6.20;;
4466;SDS011;2246;42.664;23.278;2022-08-21T14:36:21;19.17;;;6.65;;
4466;SDS011;2246;42.664;23.278;2022-08-21T14:38:47;16.92;;;5.53;;
4466;SDS011;2246;42.664;23.278;2022-08-21T14:41:18;13.38;;;6.03;;
4466;SDS011;2246;42.664;23.278;2022-08-21T14:43:45;10.95;;;5.90;;
4466;SDS011;2246;42.664;23.278;2022-08-21T14:46:13;16.15;;;6.38;;
4466;SDS011;2246;42.664;23.278;2022-08-21T14:48:42;10.00;;;6.07;;
4466;SDS011;2246;42.664;23.278;2022-08-21T14:51:08;15.25;;;6.10;;
4466;SDS011;2246;42.664;23.278;2022-08-21T14:53:34;15.13;;;5.70;;
4466;SDS011;2246;42.664;23.278;2022-08-21T14:56:00;15.23;;;5.78;;
4466;SDS011;2246;42.664;23.278;2022-08-21T14:58:30;11.85;;;5.65;;
4466;SDS011;2246;42.664;23.278;2022-08-21T15:00:56;20.58;;;6.70;;
4466;SDS011;2246;42.664;23.278;2022-08-21T15:03:23;17.63;;;9.52;;
4466;SDS011;2246;42.664;23.278;2022-08-21T15:05:49;11.43;;;6.60;;
4466;SDS011;2246;42.664;23.278;2022-08-21T15:08:15;14.15;;;6.47;;
4466;SDS011;2246;42.664;23.278;2022-08-21T15:10:42;12.00;;;6.18;;
4466;SDS011;2246;42.664;23.278;2022-08-21T15:13:08;17.80;;;6.35;;
4466;SDS011;2246;42.664;23.278;2022-08-21T15:15:36;19.10;;;5.68;;
4466;SDS011;2246;42.664;23.278;2022-08-21T15:18:04;14.32;;;6.00;;
4466;SDS011;2246;42.664;23.278;2022-08-21T15:20:30;15.45;;;5.97;;
4466;SDS011;2246;42.664;23.278;2022-08-21T15:22:56;13.05;;;6.07;;
4466;SDS011;2246;42.664;23.278;2022-08-21T15:25:22;14.15;;;5.88;;
4466;SDS011;2246;42.664;23.278;2022-08-21T15:27:48;13.27;;;6.10;;
4466;SDS011;2246;42.664;23.278;2022-08-21T15:30:15;11.57;;;6.43;;
4466;SDS011;2246;42.664;23.278;2022-08-21T15:32:41;14.85;;;7.00;;
4466;SDS011;2246;42.664;23.278;2022-08-21T15:35:07;10.35;;;5.93;;
4466;SDS011;2246;42.664;23.278;2022-08-21T15:37:33;16.23;;;6.07;;
4466;SDS011;2246;42.664;23.278;2022-08-21T15:40:00;11.38;;;6.18;;
4466;SDS011;2246;42.664;23.278;2022-08-21T15:42:26;11.65;;;6.40;;
4466;SDS011;2246;42.664;23.278;2022-08-21T15:44:54;10.25;;;5.78;;
4466;SDS011;2246;42.664;23.278;2022-08-21T15:47:30;15.93;;;6.63;;
4466;SDS011;2246;42.664;23.278;2022-08-21T15:49:58;8.43;;;5.63;;
4466;SDS011;2246;42.664;23.278;2022-08-21T15:52:24;10.52;;;5.70;;
4466;SDS011;2246;42.664;23.278;2022-08-21T15:54:51;11.80;;;6.07;;
4466;SDS011;2246;42.664;23.278;2022-08-21T15:57:18;15.32;;;6.10;;
4466;SDS011;2246;42.664;23.278;2022-08-21T15:59:45;12.75;;;5.85;;
4466;SDS011;2246;42.664;23.278;2022-08-21T16:02:13;13.65;;;8.70;;
4466;SDS011;2246;42.664;23.278;2022-08-21T16:04:40;11.05;;;6.50;;
4466;SDS011;2246;42.664;23.278;2022-08-21T16:07:06;10.63;;;5.90;;
4466;SDS011;2246;42.664;23.278;2022-08-21T16:09:32;11.90;;;5.95;;
4466;SDS011;2246;42.664;23.278;2022-08-21T16:11:59;11.77;;;6.40;;
4466;SDS011;2246;42.664;23.278;2022-08-21T16:14:26;14.70;;;6.30;;
4466;SDS011;2246;42.664;23.278;2022-08-21T16:16:53;14.98;;;6.53;;
4466;SDS011;2246;42.664;23.278;2022-08-21T16:19:20;11.93;;;6.95;;
4466;SDS011;2246;42.664;23.278;2022-08-21T16:21:46;15.40;;;6.40;;